sensor_id;sensor_type;location;lat;lon;timestamp;pressure;altitude;pressure_sealevel;temperature;humidity
56392;BME280;42289;53.582;9.714;2022-11-14T00:02:19;101846.31;;;7.25;100.00
56392;BME280;42289;53.582;9.714;2022-11-14T00:04:47;101853.19;;;7.23;100.00
56392;BME280;42289;53.582;9.714;2022-11-14T00:07:15;101859.25;;;7.23;100.00
56392;BME280;42289;53.582;9.714;2022-11-14T00:09:43;101858.41;;;7.20;100.00
56392;BME280;42289;53.582;9.714;2022-11-14T00:12:10;101862.69;;;7.24;100.00
56392;BME280;42289;53.582;9.714;2022-11-14T00:14:37;101861.88;;;7.16;100.00
56392;BME280;42289;53.582;9.714;2022-11-14T00:17:04;101880.03;;;7.08;100.00
56392;BME280;42289;53.582;9.714;2022-11-14T00:19:31;101881.78;;;7.01;100.00
56392;BME280;42289;53.582;9.714;2022-11-14T00:21:58;101881.78;;;7.04;100.00
56392;BME280;42289;53.582;9.714;2022-11-14T00:24:24;101876.63;;;7.01;100.00
56392;BME280;42289;53.582;9.714;2022-11-14T00:26:52;101869.75;;;6.99;100.00
56392;BME280;42289;53.582;9.714;2022-11-14T00:29:18;101865.44;;;6.96;100.00
56392;BME280;42289;53.582;9.714;2022-11-14T00:31:45;101862.06;;;6.93;100.00
56392;BME280;42289;53.582;9.714;2022-11-14T00:34:12;101860.34;;;6.85;100.00
56392;BME280;42289;53.582;9.714;2022-11-14T00:36:38;101849.16;;;6.86;100.00
56392;BME280;42289;53.582;9.714;2022-11-14T00:39:05;101846.59;;;6.85;100.00
56392;BME280;42289;53.582;9.714;2022-11-14T00:41:31;101823.38;;;6.77;100.00
56392;BME280;42289;53.582;9.714;2022-11-14T00:44:07;101822.56;;;6.73;100.00
56392;BME280;42289;53.582;9.714;2022-11-14T00:46:35;101807.06;;;6.69;100.00
56392;BME280;42289;53.582;9.714;2022-11-14T00:49:04;101813.94;;;6.71;100.00
56392;BME280;42289;53.582;9.714;2022-11-14T00:51:31;101811.38;;;6.67;100.00
56392;BME280;42289;53.582;9.714;2022-11-14T00:53:57;101810.50;;;6.68;100.00
56392;BME280;42289;53.582;9.714;2022-11-14T00:56:24;101813.09;;;6.69;100.00
56392;BME280;42289;53.582;9.714;2022-11-14T00:58:50;101820.91;;;6.60;100.00
56392;BME280;42289;53.582;9.714;2022-11-14T01:01:19;101825.19;;;6.63;100.00
56392;BME280;42289;53.582;9.714;2022-11-14T01:03:47;101821.75;;;6.62;100.00
56392;BME280;42289;53.582;9.714;2022-11-14T01:06:13;101827.81;;;6.56;100.00
56392;BME280;42289;53.582;9.714;2022-11-14T01:08:41;101836.41;;;6.57;100.00
56392;BME280;42289;53.582;9.714;2022-11-14T01:11:09;101830.38;;;6.56;100.00
56392;BME280;42289;53.582;9.714;2022-11-14T01:13:37;101835.53;;;6.60;100.00
56392;BME280;42289;53.582;9.714;2022-11-14T01:16:05;101838.97;;;6.62;100.00
56392;BME280;42289;53.582;9.714;2022-11-14T01:18:33;101837.28;;;6.56;100.00
56392;BME280;42289;53.582;9.714;2022-11-14T01:21:03;101834.72;;;6.56;100.00
56392;BME280;42289;53.582;9.714;2022-11-14T01:23:31;101840.72;;;6.58;100.00
56392;BME280;42289;53.582;9.714;2022-11-14T01:26:01;101838.13;;;6.58;100.00
56392;BME280;42289;53.582;9.714;2022-11-14T01:28:28;101839.88;;;6.57;100.00
56392;BME280;42289;53.582;9.714;2022-11-14T01:30:54;101821.78;;;6.53;100.00
56392;BME280;42289;53.582;9.714;2022-11-14T01:33:21;101819.19;;;6.53;100.00
56392;BME280;42289;53.582;9.714;2022-11-14T01:35:49;101823.50;;;6.54;100.00
56392;BME280;42289;53.582;9.714;2022-11-14T01:38:15;101803.72;;;6.50;100.00
56392;BME280;42289;53.582;9.714;2022-11-14T01:40:43;101794.28;;;6.46;100.00
56392;BME280;42289;53.582;9.714;2022-11-14T01:43:26;101796.00;;;6.47;100.00
56392;BME280;42289;53.582;9.714;2022-11-14T01:45:56;101799.44;;;6.47;100.00
56392;BME280;42289;53.582;9.714;2022-11-14T01:48:27;101802.00;;;6.52;100.00
56392;BME280;42289;53.582;9.714;2022-11-14T01:50:59;101804.56;;;6.50;100.00
56392;BME280;42289;53.582;9.714;2022-11-14T01:53:26;101791.66;;;6.50;100.00
56392;BME280;42289;53.582;9.714;2022-11-14T01:55:55;101802.88;;;6.49;100.00
56392;BME280;42289;53.582;9.714;2022-11-14T01:58:24;101810.59;;;6.52;100.00
56392;BME280;42289;53.582;9.714;2022-11-14T02:00:53;101800.28;;;6.46;100.00
56392;BME280;42289;53.582;9.714;2022-11-14T02:03:20;101792.59;;;6.40;100.00
56392;BME280;42289;53.582;9.714;2022-11-14T02:05:47;101794.31;;;6.39;100.00
56392;BME280;42289;53.582;9.714;2022-11-14T02:08:16;101807.22;;;6.39;100.00
56392;BME280;42289;53.582;9.714;2022-11-14T02:10:44;101823.56;;;6.43;100.00
56392;BME280;42289;53.582;9.714;2022-11-14T02:13:10;101830.47;;;6.36;100.00
56392;BME280;42289;53.582;9.714;2022-11-14T02:15:37;101827.94;;;6.33;100.00
56392;BME280;42289;53.582;9.714;2022-11-14T02:18:04;101832.19;;;6.39;100.00
56392;BME280;42289;53.582;9.714;2022-11-14T02:20:35;101813.25;;;6.40;100.00
56392;BME280;42289;53.582;9.714;2022-11-14T02:23:02;101812.38;;;6.39;100.00
56392;BME280;42289;53.582;9.714;2022-11-14T02:25:28;101821.88;;;6.39;100.00
56392;BME280;42289;53.582;9.714;2022-11-14T02:27:56;101827.00;;;6.45;100.00
56392;BME280;42289;53.582;9.714;2022-11-14T02:30:23;101836.50;;;6.37;100.00
56392;BME280;42289;53.582;9.714;2022-11-14T02:32:50;101842.53;;;6.37;100.00
56392;BME280;42289;53.582;9.714;2022-11-14T02:35:16;101837.34;;;6.42;100.00
56392;BME280;42289;53.582;9.714;2022-11-14T02:37:44;101831.34;;;6.40;100.00
56392;BME280;42289;53.582;9.714;2022-11-14T02:40:11;101835.66;;;6.41;100.00
56392;BME280;42289;53.582;9.714;2022-11-14T02:42:38;101821.88;;;6.39;100.00
56392;BME280;42289;53.582;9.714;2022-11-14T02:45:05;101846.84;;;6.35;100.00
56392;BME280;42289;53.582;9.714;2022-11-14T02:47:32;101840.81;;;6.38;100.00
56392;BME280;42289;53.582;9.714;2022-11-14T02:49:58;101851.13;;;6.38;100.00
56392;BME280;42289;53.582;9.714;2022-11-14T02:52:24;101860.63;;;6.37;100.00
56392;BME280;42289;53.582;9.714;2022-11-14T02:54:52;101862.34;;;6.35;100.00
56392;BME280;42289;53.582;9.714;2022-11-14T02:57:18;101852.03;;;6.32;100.00
56392;BME280;42289;53.582;9.714;2022-11-14T02:59:45;101842.56;;;6.34;100.00
56392;BME280;42289;53.582;9.714;2022-11-14T03:02:11;101840.81;;;6.38;100.00
56392;BME280;42289;53.582;9.714;2022-11-14T03:04:38;101827.88;;;6.39;100.00
56392;BME280;42289;53.582;9.714;2022-11-14T03:07:05;101844.25;;;6.38;100.00
56392;BME280;42289;53.582;9.714;2022-11-14T03:09:31;101829.63;;;6.33;100.00
56392;BME280;42289;53.582;9.714;2022-11-14T03:11:59;101801.22;;;6.37;100.00
56392;BME280;42289;53.582;9.714;2022-11-14T03:14:25;101793.47;;;6.33;100.00
56392;BME280;42289;53.582;9.714;2022-11-14T03:16:53;101776.25;;;6.36;100.00
56392;BME280;42289;53.582;9.714;2022-11-14T03:19:20;101759.84;;;6.42;100.00
56392;BME280;42289;53.582;9.714;2022-11-14T03:21:46;101764.19;;;6.42;100.00
56392;BME280;42289;53.582;9.714;2022-11-14T03:24:12;101784.78;;;6.48;100.00
56392;BME280;42289;53.582;9.714;2022-11-14T03:26:39;101790.88;;;6.40;100.00
56392;BME280;42289;53.582;9.714;2022-11-14T03:29:07;101802.06;;;6.43;100.00
56392;BME280;42289;53.582;9.714;2022-11-14T03:31:33;101800.34;;;6.42;100.00
56392;BME280;42289;53.582;9.714;2022-11-14T03:34:00;101808.94;;;6.40;100.00
56392;BME280;42289;53.582;9.714;2022-11-14T03:36:26;101812.44;;;6.33;100.00
56392;BME280;42289;53.582;9.714;2022-11-14T03:38:52;101784.00;;;6.35;100.00
56392;BME280;42289;53.582;9.714;2022-11-14T03:41:19;101767.66;;;6.33;100.00
56392;BME280;42289;53.582;9.714;2022-11-14T03:43:45;101733.25;;;6.32;100.00
56392;BME280;42289;53.582;9.714;2022-11-14T03:46:13;101713.44;;;6.33;100.00
56392;BME280;42289;53.582;9.714;2022-11-14T03:48:39;101698.78;;;6.36;100.00
56392;BME280;42289;53.582;9.714;2022-11-14T03:51:06;101691.88;;;6.42;100.00
56392;BME280;42289;53.582;9.714;2022-11-14T03:53:32;101687.59;;;6.36;100.00
56392;BME280;42289;53.582;9.714;2022-11-14T03:55:58;101674.72;;;6.34;100.00
56392;BME280;42289;53.582;9.714;2022-11-14T03:58:25;101671.25;;;6.34;100.00
56392;BME280;42289;53.582;9.714;2022-11-14T04:00:51;101665.22;;;6.35;100.00
56392;BME280;42289;53.582;9.714;2022-11-14T04:03:21;101667.81;;;6.30;100.00
56392;BME280;42289;53.582;9.714;2022-11-14T04:05:48;101670.38;;;6.35;100.00
56392;BME280;42289;53.582;9.714;2022-11-14T04:08:14;101660.91;;;6.38;100.00
56392;BME280;42289;53.582;9.714;2022-11-14T04:10:41;101659.19;;;6.36;100.00
56392;BME280;42289;53.582;9.714;2022-11-14T04:13:07;101677.22;;;6.40;100.00
56392;BME280;42289;53.582;9.714;2022-11-14T04:15:34;101679.81;;;6.40;100.00
56392;BME280;42289;53.582;9.714;2022-11-14T04:18:00;101675.53;;;6.38;100.00
56392;BME280;42289;53.582;9.714;2022-11-14T04:20:28;101672.97;;;6.36;100.00
56392;BME280;42289;53.582;9.714;2022-11-14T04:22:54;101677.22;;;6.40;100.00
56392;BME280;42289;53.582;9.714;2022-11-14T04:25:21;101661.78;;;6.36;100.00
56392;BME280;42289;53.582;9.714;2022-11-14T04:27:47;101642.81;;;6.38;100.00
56392;BME280;42289;53.582;9.714;2022-11-14T04:30:14;101635.13;;;6.31;100.00
56392;BME280;42289;53.582;9.714;2022-11-14T04:32:40;101621.31;;;6.36;100.00
56392;BME280;42289;53.582;9.714;2022-11-14T04:35:07;101621.28;;;6.38;100.00
56392;BME280;42289;53.582;9.714;2022-11-14T04:37:35;101617.91;;;6.31;100.00
56392;BME280;42289;53.582;9.714;2022-11-14T04:40:04;101623.91;;;6.35;100.00
56392;BME280;42289;53.582;9.714;2022-11-14T04:42:31;101640.25;;;6.38;100.00
56392;BME280;42289;53.582;9.714;2022-11-14T04:44:57;101653.16;;;6.37;100.00
56392;BME280;42289;53.582;9.714;2022-11-14T04:47:23;101654.03;;;6.37;100.00
56392;BME280;42289;53.582;9.714;2022-11-14T04:49:50;101661.78;;;6.36;100.00
56392;BME280;42289;53.582;9.714;2022-11-14T04:52:16;101655.75;;;6.35;100.00
56392;BME280;42289;53.582;9.714;2022-11-14T04:54:44;101640.25;;;6.35;100.00
56392;BME280;42289;53.582;9.714;2022-11-14T04:57:10;101629.97;;;6.31;100.00
56392;BME280;42289;53.582;9.714;2022-11-14T04:59:37;101612.72;;;6.36;100.00
56392;BME280;42289;53.582;9.714;2022-11-14T05:02:03;101598.09;;;6.30;100.00
56392;BME280;42289;53.582;9.714;2022-11-14T05:04:30;101586.97;;;6.25;100.00
56392;BME280;42289;53.582;9.714;2022-11-14T05:06:56;101598.13;;;6.32;100.00
56392;BME280;42289;53.582;9.714;2022-11-14T05:09:22;101601.53;;;6.32;100.00
56392;BME280;42289;53.582;9.714;2022-11-14T05:11:50;101607.56;;;6.33;100.00
56392;BME280;42289;53.582;9.714;2022-11-14T05:14:17;101604.13;;;6.32;100.00
56392;BME280;42289;53.582;9.714;2022-11-14T05:16:43;101580.06;;;6.27;100.00
56392;BME280;42289;53.582;9.714;2022-11-14T05:19:10;101562.81;;;6.32;100.00
56392;BME280;42289;53.582;9.714;2022-11-14T05:21:36;101562.88;;;6.28;100.00
56392;BME280;42289;53.582;9.714;2022-11-14T05:24:03;101567.13;;;6.29;100.00
56392;BME280;42289;53.582;9.714;2022-11-14T05:26:29;101576.56;;;6.33;100.00
56392;BME280;42289;53.582;9.714;2022-11-14T05:28:57;101587.75;;;6.35;100.00
56392;BME280;42289;53.582;9.714;2022-11-14T05:31:23;101603.25;;;6.35;100.00
56392;BME280;42289;53.582;9.714;2022-11-14T05:33:50;101610.16;;;6.34;100.00
56392;BME280;42289;53.582;9.714;2022-11-14T05:36:16;101622.19;;;6.34;100.00
56392;BME280;42289;53.582;9.714;2022-11-14T05:38:43;101611.03;;;6.29;100.00
56392;BME280;42289;53.582;9.714;2022-11-14T05:41:11;101616.19;;;6.29;100.00
56392;BME280;42289;53.582;9.714;2022-11-14T05:43:38;101623.06;;;6.31;100.00
56392;BME280;42289;53.582;9.714;2022-11-14T05:46:09;101619.66;;;6.29;100.00
56392;BME280;42289;53.582;9.714;2022-11-14T05:48:36;101620.50;;;6.28;100.00
56392;BME280;42289;53.582;9.714;2022-11-14T05:51:04;101633.44;;;6.28;100.00
56392;BME280;42289;53.582;9.714;2022-11-14T05:53:31;101632.56;;;6.26;100.00
56392;BME280;42289;53.582;9.714;2022-11-14T05:55:59;101636.84;;;6.29;100.00
56392;BME280;42289;53.582;9.714;2022-11-14T05:58:26;101634.31;;;6.24;100.00
56392;BME280;42289;53.582;9.714;2022-11-14T06:01:00;101624.84;;;6.25;100.00
56392;BME280;42289;53.582;9.714;2022-11-14T06:03:30;101618.81;;;6.26;100.00
56392;BME280;42289;53.582;9.714;2022-11-14T06:05:58;101620.56;;;6.23;100.00
56392;BME280;42289;53.582;9.714;2022-11-14T06:08:26;101618.81;;;6.24;100.00
56392;BME280;42289;53.582;9.714;2022-11-14T06:10:53;101622.25;;;6.28;100.00
56392;BME280;42289;53.582;9.714;2022-11-14T06:13:19;101615.31;;;6.31;100.00
56392;BME280;42289;53.582;9.714;2022-11-14T06:15:48;101607.59;;;6.28;100.00
56392;BME280;42289;53.582;9.714;2022-11-14T06:18:14;101605.88;;;6.27;100.00
56392;BME280;42289;53.582;9.714;2022-11-14T06:20:42;101611.03;;;6.29;100.00
56392;BME280;42289;53.582;9.714;2022-11-14T06:23:09;101605.06;;;6.23;100.00
56392;BME280;42289;53.582;9.714;2022-11-14T06:25:35;101601.59;;;6.25;100.00
56392;BME280;42289;53.582;9.714;2022-11-14T06:28:01;101596.41;;;6.26;100.00
56392;BME280;42289;53.582;9.714;2022-11-14T06:30:28;101591.25;;;6.26;100.00
56392;BME280;42289;53.582;9.714;2022-11-14T06:32:55;101586.09;;;6.26;100.00
56392;BME280;42289;53.582;9.714;2022-11-14T06:35:22;101593.84;;;6.26;100.00
56392;BME280;42289;53.582;9.714;2022-11-14T06:37:50;101590.44;;;6.24;100.00
56392;BME280;42289;53.582;9.714;2022-11-14T06:40:16;101582.66;;;6.27;100.00
56392;BME280;42289;53.582;9.714;2022-11-14T06:42:43;101587.88;;;6.22;100.00
56392;BME280;42289;53.582;9.714;2022-11-14T06:45:10;101589.56;;;6.22;100.00
56392;BME280;42289;53.582;9.714;2022-11-14T06:47:36;101586.09;;;6.25;100.00
56392;BME280;42289;53.582;9.714;2022-11-14T06:50:03;101593.88;;;6.21;100.00
56392;BME280;42289;53.582;9.714;2022-11-14T06:52:30;101597.31;;;6.25;100.00
56392;BME280;42289;53.582;9.714;2022-11-14T06:54:57;101601.59;;;6.26;100.00
56392;BME280;42289;53.582;9.714;2022-11-14T06:57:24;101611.03;;;6.29;100.00
56392;BME280;42289;53.582;9.714;2022-11-14T06:59:50;101600.72;;;6.29;100.00
56392;BME280;42289;53.582;9.714;2022-11-14T07:02:17;101605.91;;;6.26;100.00
56392;BME280;42289;53.582;9.714;2022-11-14T07:04:43;101617.13;;;6.20;100.00
56392;BME280;42289;53.582;9.714;2022-11-14T07:07:09;101605.09;;;6.17;100.00
56392;BME280;42289;53.582;9.714;2022-11-14T07:09:37;101598.22;;;6.18;100.00
56392;BME280;42289;53.582;9.714;2022-11-14T07:12:05;101597.34;;;6.20;100.00
56392;BME280;42289;53.582;9.714;2022-11-14T07:14:32;101587.88;;;6.22;100.00
56392;BME280;42289;53.582;9.714;2022-11-14T07:16:59;101580.13;;;6.22;100.00
56392;BME280;42289;53.582;9.714;2022-11-14T07:19:26;101568.97;;;6.16;100.00
56392;BME280;42289;53.582;9.714;2022-11-14T07:21:53;101569.03;;;6.13;100.00
56392;BME280;42289;53.582;9.714;2022-11-14T07:24:19;101562.09;;;6.15;100.00
56392;BME280;42289;53.582;9.714;2022-11-14T07:26:46;101566.41;;;6.16;100.00
56392;BME280;42289;53.582;9.714;2022-11-14T07:29:13;101575.88;;;6.14;100.00
56392;BME280;42289;53.582;9.714;2022-11-14T07:31:40;101580.19;;;6.13;100.00
56392;BME280;42289;53.582;9.714;2022-11-14T07:34:07;101581.03;;;6.12;100.00
56392;BME280;42289;53.582;9.714;2022-11-14T07:36:33;101577.63;;;6.12;100.00
56392;BME280;42289;53.582;9.714;2022-11-14T07:39:00;101587.09;;;6.08;100.00
56392;BME280;42289;53.582;9.714;2022-11-14T07:41:26;101581.00;;;6.15;100.00
56392;BME280;42289;53.582;9.714;2022-11-14T07:43:53;101578.50;;;6.09;100.00
56392;BME280;42289;53.582;9.714;2022-11-14T07:46:20;101566.47;;;6.06;100.00
56392;BME280;42289;53.582;9.714;2022-11-14T07:48:47;101565.56;;;6.11;100.00
56392;BME280;42289;53.582;9.714;2022-11-14T07:51:15;101569.91;;;6.05;100.00
56392;BME280;42289;53.582;9.714;2022-11-14T07:53:42;101557.94;;;5.98;100.00
56392;BME280;42289;53.582;9.714;2022-11-14T07:56:09;101569.09;;;6.00;100.00
56392;BME280;42289;53.582;9.714;2022-11-14T07:58:36;101562.16;;;6.05;100.00
56392;BME280;42289;53.582;9.714;2022-11-14T08:01:04;101558.72;;;6.08;100.00
56392;BME280;42289;53.582;9.714;2022-11-14T08:03:33;101549.25;;;6.05;100.00
56392;BME280;42289;53.582;9.714;2022-11-14T08:06:00;101550.94;;;6.10;100.00
56392;BME280;42289;53.582;9.714;2022-11-14T08:08:26;101549.22;;;6.12;100.00
56392;BME280;42289;53.582;9.714;2022-11-14T08:10:55;101557.88;;;6.06;100.00
56392;BME280;42289;53.582;9.714;2022-11-14T08:13:21;101562.16;;;6.07;100.00
56392;BME280;42289;53.582;9.714;2022-11-14T08:15:47;101558.75;;;6.05;100.00
56392;BME280;42289;53.582;9.714;2022-11-14T08:20:47;101569.09;;;6.00;100.00
56392;BME280;42289;53.582;9.714;2022-11-14T08:23:14;101563.03;;;6.04;100.00
56392;BME280;42289;53.582;9.714;2022-11-14T08:25:40;101523.50;;;6.02;100.00
56392;BME280;42289;53.582;9.714;2022-11-14T08:28:07;101519.16;;;6.08;100.00
56392;BME280;42289;53.582;9.714;2022-11-14T08:30:34;101524.38;;;5.95;100.00
56392;BME280;42289;53.582;9.714;2022-11-14T08:33:01;101530.38;;;6.00;100.00
56392;BME280;42289;53.582;9.714;2022-11-14T08:35:28;101539.81;;;6.06;100.00
56392;BME280;42289;53.582;9.714;2022-11-14T08:37:56;101538.06;;;6.08;100.00
56392;BME280;42289;53.582;9.714;2022-11-14T08:40:23;101544.06;;;6.09;100.00
56392;BME280;42289;53.582;9.714;2022-11-14T08:42:49;101541.41;;;6.18;100.00
56392;BME280;42289;53.582;9.714;2022-11-14T08:45:16;101522.56;;;6.08;100.00
56392;BME280;42289;53.582;9.714;2022-11-14T08:47:49;101511.44;;;6.01;100.00
56392;BME280;42289;53.582;9.714;2022-11-14T08:50:16;101502.03;;;5.91;100.00
56392;BME280;42289;53.582;9.714;2022-11-14T08:52:48;101512.34;;;5.91;100.00
56392;BME280;42289;53.582;9.714;2022-11-14T08:55:16;101510.72;;;5.82;100.00
56392;BME280;42289;53.582;9.714;2022-11-14T08:57:43;101493.53;;;5.78;100.00
56392;BME280;42289;53.582;9.714;2022-11-14T09:00:24;101472.84;;;5.87;100.00
56392;BME280;42289;53.582;9.714;2022-11-14T09:02:51;101470.28;;;5.83;100.00
56392;BME280;42289;53.582;9.714;2022-11-14T09:05:17;101466.78;;;5.90;100.00
56392;BME280;42289;53.582;9.714;2022-11-14T09:07:44;101455.56;;;5.91;100.00
56392;BME280;42289;53.582;9.714;2022-11-14T09:10:10;101451.31;;;5.88;100.00
56392;BME280;42289;53.582;9.714;2022-11-14T09:12:38;101453.84;;;5.93;100.00
56392;BME280;42289;53.582;9.714;2022-11-14T09:15:05;101466.72;;;5.98;100.00
56392;BME280;42289;53.582;9.714;2022-11-14T09:17:32;101452.94;;;6.03;100.00
56392;BME280;42289;53.582;9.714;2022-11-14T09:19:59;101456.38;;;6.02;100.00
56392;BME280;42289;53.582;9.714;2022-11-14T09:22:25;101461.56;;;5.98;100.00
56392;BME280;42289;53.582;9.714;2022-11-14T09:24:53;101456.31;;;6.07;100.00
56392;BME280;42289;53.582;9.714;2022-11-14T09:27:20;101470.94;;;6.10;100.00
56392;BME280;42289;53.582;9.714;2022-11-14T09:29:48;101469.28;;;6.04;100.00
56392;BME280;42289;53.582;9.714;2022-11-14T09:32:14;101476.19;;;5.96;100.00
56392;BME280;42289;53.582;9.714;2022-11-14T09:34:41;101472.69;;;6.04;100.00
56392;BME280;42289;53.582;9.714;2022-11-14T09:37:10;101475.28;;;6.03;100.00
56392;BME280;42289;53.582;9.714;2022-11-14T09:39:36;101471.78;;;6.09;100.00
56392;BME280;42289;53.582;9.714;2022-11-14T09:42:18;101452.88;;;6.10;100.00
56392;BME280;42289;53.582;9.714;2022-11-14T09:44:54;101445.13;;;6.08;100.00
56392;BME280;42289;53.582;9.714;2022-11-14T09:47:24;101448.47;;;6.18;100.00
56392;BME280;42289;53.582;9.714;2022-11-14T09:49:55;101433.03;;;6.15;100.00
56392;BME280;42289;53.582;9.714;2022-11-14T09:52:27;101429.66;;;6.08;100.00
56392;BME280;42289;53.582;9.714;2022-11-14T09:54:58;101414.16;;;6.08;100.00
56392;BME280;42289;53.582;9.714;2022-11-14T09:57:26;101418.44;;;6.11;100.00
56392;BME280;42289;53.582;9.714;2022-11-14T09:59:55;101424.53;;;6.05;100.00
56392;BME280;42289;53.582;9.714;2022-11-14T10:02:38;101414.13;;;6.13;100.00
56392;BME280;42289;53.582;9.714;2022-11-14T10:05:18;101400.31;;;6.15;100.00
56392;BME280;42289;53.582;9.714;2022-11-14T10:07:57;101410.66;;;6.17;100.00
56392;BME280;42289;53.582;9.714;2022-11-14T10:10:44;101397.66;;;6.23;100.00
56392;BME280;42289;53.582;9.714;2022-11-14T10:13:44;101391.53;;;6.30;100.00
56392;BME280;42289;53.582;9.714;2022-11-14T10:16:25;101378.63;;;6.30;100.00
56392;BME280;42289;53.582;9.714;2022-11-14T10:19:13;101370.00;;;6.34;100.00
56392;BME280;42289;53.582;9.714;2022-11-14T10:30:57;101350.22;;;6.33;100.00
56392;BME280;42289;53.582;9.714;2022-11-14T10:32:07;101346.75;;;6.33;100.00
56392;BME280;42289;53.582;9.714;2022-11-14T10:34:42;101339.00;;;6.33;100.00
56392;BME280;42289;53.582;9.714;2022-11-14T10:37:17;101332.09;;;6.36;100.00
56392;BME280;42289;53.582;9.714;2022-11-14T10:40:16;101326.13;;;6.34;100.00
56392;BME280;42289;53.582;9.714;2022-11-14T10:42:34;101303.66;;;6.41;100.00
56392;BME280;42289;53.582;9.714;2022-11-14T10:45:06;101299.38;;;6.38;100.00
56392;BME280;42289;53.582;9.714;2022-11-14T10:47:39;101293.13;;;6.53;100.00
56392;BME280;42289;53.582;9.714;2022-11-14T10:50:14;101273.38;;;6.51;100.00
56392;BME280;42289;53.582;9.714;2022-11-14T10:52:44;101270.81;;;6.49;100.00
56392;BME280;42289;53.582;9.714;2022-11-14T10:55:13;101266.31;;;6.62;100.00
56392;BME280;42289;53.582;9.714;2022-11-14T10:57:48;101253.19;;;6.74;100.00
56392;BME280;42289;53.582;9.714;2022-11-14T11:01:09;101246.25;;;6.78;100.00
56392;BME280;42289;53.582;9.714;2022-11-14T11:03:42;101221.38;;;6.72;100.00
56392;BME280;42289;53.582;9.714;2022-11-14T11:06:23;101213.69;;;6.68;100.00
56392;BME280;42289;53.582;9.714;2022-11-14T11:08:58;101207.59;;;6.73;100.00
56392;BME280;42289;53.582;9.714;2022-11-14T11:11:53;101202.31;;;6.80;100.00
56392;BME280;42289;53.582;9.714;2022-11-14T11:14:26;101187.53;;;6.88;100.00
56392;BME280;42289;53.582;9.714;2022-11-14T11:17:07;101160.16;;;6.78;100.00
56392;BME280;42289;53.582;9.714;2022-11-14T11:19:41;101152.41;;;6.76;100.00
56392;BME280;42289;53.582;9.714;2022-11-14T11:22:27;101148.16;;;6.73;100.00
56392;BME280;42289;53.582;9.714;2022-11-14T11:24:54;101148.72;;;6.91;100.00
56392;BME280;42289;53.582;9.714;2022-11-14T11:27:23;101129.50;;;7.06;100.00
56392;BME280;42289;53.582;9.714;2022-11-14T11:30:02;101110.44;;;7.12;100.00
56392;BME280;42289;53.582;9.714;2022-11-14T11:32:29;101096.09;;;6.94;100.00
56392;BME280;42289;53.582;9.714;2022-11-14T11:34:57;101093.41;;;7.00;100.00
56392;BME280;42289;53.582;9.714;2022-11-14T11:37:27;101089.13;;;6.99;100.00
56392;BME280;42289;53.582;9.714;2022-11-14T11:39:58;101090.03;;;6.98;100.00
56392;BME280;42289;53.582;9.714;2022-11-14T11:42:30;101079.59;;;7.02;100.00
56392;BME280;42289;53.582;9.714;2022-11-14T11:45:00;101074.31;;;7.07;100.00
56392;BME280;42289;53.582;9.714;2022-11-14T11:47:32;101061.44;;;7.04;100.00
56392;BME280;42289;53.582;9.714;2022-11-14T11:50:01;101043.97;;;7.15;100.00
56392;BME280;42289;53.582;9.714;2022-11-14T11:52:32;101044.00;;;7.14;100.00
56392;BME280;42289;53.582;9.714;2022-11-14T11:55:04;101040.63;;;7.12;100.00
56392;BME280;42289;53.582;9.714;2022-11-14T11:57:42;101048.34;;;7.13;100.00
56392;BME280;42289;53.582;9.714;2022-11-14T12:00:14;101036.22;;;7.17;100.00
56392;BME280;42289;53.582;9.714;2022-11-14T12:02:44;101025.84;;;7.18;100.00
56392;BME280;42289;53.582;9.714;2022-11-14T12:05:15;101036.75;;;7.31;100.00
56392;BME280;42289;53.582;9.714;2022-11-14T12:07:46;101039.59;;;7.19;100.00
56392;BME280;42289;53.582;9.714;2022-11-14T12:10:20;101053.97;;;7.32;100.00
56392;BME280;42289;53.582;9.714;2022-11-14T12:13:05;101074.31;;;7.49;100.00
56392;BME280;42289;53.582;9.714;2022-11-14T12:15:43;101059.56;;;7.53;100.00
56392;BME280;42289;53.582;9.714;2022-11-14T12:18:33;101064.97;;;7.42;100.00
56392;BME280;42289;53.582;9.714;2022-11-14T12:21:19;101083.13;;;7.40;100.00
56392;BME280;42289;53.582;9.714;2022-11-14T12:24:13;101091.53;;;7.50;100.00
56392;BME280;42289;53.582;9.714;2022-11-14T12:27:03;101084.28;;;7.66;100.00
56392;BME280;42289;53.582;9.714;2022-11-14T12:29:47;101079.84;;;7.71;100.00
56392;BME280;42289;53.582;9.714;2022-11-14T12:32:18;101072.00;;;7.76;100.00
56392;BME280;42289;53.582;9.714;2022-11-14T12:34:49;101057.19;;;7.83;100.00
56392;BME280;42289;53.582;9.714;2022-11-14T12:37:21;101053.78;;;7.81;100.00
56392;BME280;42289;53.582;9.714;2022-11-14T12:39:59;101069.19;;;7.85;100.00
56392;BME280;42289;53.582;9.714;2022-11-14T12:42:27;101060.47;;;7.89;100.00
56392;BME280;42289;53.582;9.714;2022-11-14T12:44:54;101049.59;;;7.75;100.00
56392;BME280;42289;53.582;9.714;2022-11-14T12:47:22;101042.69;;;7.75;100.00
56392;BME280;42289;53.582;9.714;2022-11-14T12:53:00;101041.66;;;7.83;100.00
56392;BME280;42289;53.582;9.714;2022-11-14T12:55:52;101042.50;;;7.83;100.00
56392;BME280;42289;53.582;9.714;2022-11-14T12:58:31;101037.25;;;7.86;100.00
56392;BME280;42289;53.582;9.714;2022-11-14T13:01:10;101037.94;;;7.93;100.00
56392;BME280;42289;53.582;9.714;2022-11-14T13:03:52;101041.59;;;7.86;100.00
56392;BME280;42289;53.582;9.714;2022-11-14T13:06:23;101034.69;;;7.85;100.00
56392;BME280;42289;53.582;9.714;2022-11-14T13:11:48;101021.44;;;7.97;100.00
56392;BME280;42289;53.582;9.714;2022-11-14T13:14:37;101028.31;;;8.00;100.00
56392;BME280;42289;53.582;9.714;2022-11-14T13:17:27;101034.31;;;8.00;100.00
56392;BME280;42289;53.582;9.714;2022-11-14T13:20:29;101026.50;;;8.03;100.00